Check out our new PWSWeather beta!
PWSweather.com
Personal Weather Stations
Station Observations

YeovilGB

Lat: 50.949, Lon: -2.627

Elevation: 70

Station Type: Vantage Pro

http://www.yeovil-weather.me.uk/

High Low Average
Temperature 48.7°F9.3°C 32.9°F0.5°C 39.3°F4.1°C
Dew Point 44.4°F6.9°C 31.6°F-0.2°C 36.5°F2.5°C
Winds 5.8 mph 9.3 kmh Calm Calm 1.0 mph WSW1.6 kmh WSW
Wind Gusts 11.5 mph18.5 kmh -- 2.0 mph3.2 kmh
Humidity 97% 78% 90%
Pressure 29.93 in1013.5 mb 29.50 in999.0 mb -
Precipitation 0.00 in0.0 mm - -
Hour Temp Dew Point Humidity Winds Wind Gusts Pressure Precip Precip Rate Daily Precip Total
12:00 AM 35.4°F1.9°C 34.1°F1.2°C 95% Calm Calm -- 29.50 in999.0 mb - 0.00 in0.0 mm 0.00 in0.0 mm
12:10 AM 35.5°F1.9°C 34.2°F1.2°C 95% Calm Calm -- 29.50 in999.0 mb - 0.00 in0.0 mm 0.00 in0.0 mm
12:20 AM 35.3°F1.8°C 34.1°F1.2°C 95% Calm Calm -- 29.50 in999.0 mb - 0.00 in0.0 mm 0.00 in0.0 mm
12:30 AM 35.2°F1.8°C 33.9°F1.1°C 95% Calm Calm -- 29.51 in999.3 mb - 0.00 in0.0 mm 0.00 in0.0 mm
12:40 AM 34.7°F1.5°C 33.2°F0.7°C 94% Calm Calm -- 29.51 in999.3 mb - 0.00 in0.0 mm 0.00 in0.0 mm
12:50 AM 34.2°F1.2°C 32.7°F0.4°C 94% Calm Calm -- 29.52 in999.7 mb - 0.00 in0.0 mm 0.00 in0.0 mm
01:00 AM 33.8°F1.0°C 32.3°F0.2°C 94% Calm Calm -- 29.52 in999.7 mb - 0.00 in0.0 mm 0.00 in0.0 mm
01:10 AM 33.6°F0.9°C 32.3°F0.2°C 95% Calm Calm -- 29.52 in999.7 mb - 0.00 in0.0 mm 0.00 in0.0 mm
01:20 AM 33.4°F0.8°C 32.1°F0.1°C 95% Calm Calm -- 29.52 in999.7 mb - 0.00 in0.0 mm 0.00 in0.0 mm
01:30 AM 33.3°F0.7°C 32.0°F0.0°C 95% Calm Calm -- 29.53 in1000.0 mb - 0.00 in0.0 mm 0.00 in0.0 mm
01:40 AM 33.2°F0.7°C 32.0°F0.0°C 95% Calm Calm -- 29.53 in1000.0 mb - 0.00 in0.0 mm 0.00 in0.0 mm
01:50 AM 33.1°F0.6°C 31.9°F-0.1°C 95% Calm Calm -- 29.54 in1000.3 mb - 0.00 in0.0 mm 0.00 in0.0 mm
02:00 AM 33.2°F0.7°C 31.9°F-0.1°C 95% Calm Calm -- 29.54 in1000.3 mb - 0.00 in0.0 mm 0.00 in0.0 mm
02:10 AM 33.3°F0.7°C 32.0°F0.0°C 95% Calm Calm -- 29.54 in1000.3 mb - 0.00 in0.0 mm 0.00 in0.0 mm
02:20 AM 33.3°F0.7°C 32.0°F0.0°C 95% Calm Calm -- 29.55 in1000.7 mb - 0.00 in0.0 mm 0.00 in0.0 mm
02:30 AM 33.2°F0.7°C 31.9°F-0.1°C 95% Calm Calm -- 29.55 in1000.7 mb - 0.00 in0.0 mm 0.00 in0.0 mm
02:40 AM 33.0°F0.6°C 31.8°F-0.1°C 95% Calm Calm -- 29.55 in1000.7 mb - 0.00 in0.0 mm 0.00 in0.0 mm
02:50 AM 33.0°F0.6°C 31.7°F-0.2°C 95% Calm Calm -- 29.56 in1001.0 mb - 0.00 in0.0 mm 0.00 in0.0 mm
03:00 AM 33.0°F0.6°C 31.7°F-0.2°C 95% Calm Calm -- 29.56 in1001.0 mb - 0.00 in0.0 mm 0.00 in0.0 mm
03:10 AM 32.9°F0.5°C 31.6°F-0.2°C 95% Calm Calm -- 29.57 in1001.4 mb - 0.00 in0.0 mm 0.00 in0.0 mm
03:20 AM 32.9°F0.5°C 31.6°F-0.2°C 95% Calm Calm -- 29.57 in1001.4 mb - 0.00 in0.0 mm 0.00 in0.0 mm
03:30 AM 32.9°F0.5°C 31.6°F-0.2°C 95% Calm Calm -- 29.57 in1001.4 mb - 0.00 in0.0 mm 0.00 in0.0 mm
03:40 AM 32.9°F0.5°C 31.9°F-0.1°C 96% Calm Calm -- 29.58 in1001.7 mb - 0.00 in0.0 mm 0.00 in0.0 mm
03:50 AM 33.0°F0.6°C 32.0°F0.0°C 96% Calm Calm -- 29.58 in1001.7 mb - 0.00 in0.0 mm 0.00 in0.0 mm
04:00 AM 33.0°F0.6°C 32.0°F0.0°C 96% Calm Calm -- 29.58 in1001.7 mb - 0.00 in0.0 mm 0.00 in0.0 mm
04:10 AM 33.1°F0.6°C 32.1°F0.1°C 96% Calm Calm -- 29.59 in1002.0 mb - 0.00 in0.0 mm 0.00 in0.0 mm
04:20 AM 33.0°F0.6°C 32.0°F0.0°C 96% Calm Calm -- 29.59 in1002.0 mb - 0.00 in0.0 mm 0.00 in0.0 mm
04:30 AM 33.0°F0.6°C 32.0°F0.0°C 96% Calm Calm -- 29.60 in1002.4 mb - 0.00 in0.0 mm 0.00 in0.0 mm
04:40 AM 33.1°F0.6°C 32.1°F0.1°C 96% Calm Calm -- 29.61 in1002.7 mb - 0.00 in0.0 mm 0.00 in0.0 mm
04:50 AM 33.3°F0.7°C 32.3°F0.2°C 96% Calm Calm -- 29.61 in1002.7 mb - 0.00 in0.0 mm 0.00 in0.0 mm
05:00 AM 33.4°F0.8°C 32.4°F0.2°C 96% Calm Calm -- 29.61 in1002.7 mb - 0.00 in0.0 mm 0.00 in0.0 mm
05:10 AM 33.6°F0.9°C 32.6°F0.3°C 96% Calm Calm -- 29.62 in1003.0 mb - 0.00 in0.0 mm 0.00 in0.0 mm
05:20 AM 33.8°F1.0°C 32.8°F0.4°C 96% Calm Calm -- 29.62 in1003.0 mb - 0.00 in0.0 mm 0.00 in0.0 mm
05:30 AM 33.9°F1.1°C 32.9°F0.5°C 96% Calm Calm 1.2 mph1.9 kmh 29.63 in1003.4 mb - 0.00 in0.0 mm 0.00 in0.0 mm
05:40 AM 34.0°F1.1°C 33.0°F0.6°C 96% Calm Calm -- 29.63 in1003.4 mb - 0.00 in0.0 mm 0.00 in0.0 mm
05:50 AM 34.0°F1.1°C 33.0°F0.6°C 96% Calm Calm -- 29.64 in1003.7 mb - 0.00 in0.0 mm 0.00 in0.0 mm
06:00 AM 34.0°F1.1°C 33.0°F0.6°C 96% Calm Calm -- 29.64 in1003.7 mb - 0.00 in0.0 mm 0.00 in0.0 mm
06:10 AM 33.8°F1.0°C 32.8°F0.4°C 96% Calm Calm -- 29.64 in1003.7 mb - 0.00 in0.0 mm 0.00 in0.0 mm
06:20 AM 33.7°F0.9°C 32.7°F0.4°C 96% Calm Calm -- 29.65 in1004.1 mb - 0.00 in0.0 mm 0.00 in0.0 mm
06:30 AM 33.8°F1.0°C 32.8°F0.4°C 96% Calm Calm -- 29.66 in1004.4 mb - 0.00 in0.0 mm 0.00 in0.0 mm
06:40 AM 34.1°F1.2°C 33.1°F0.6°C 96% Calm Calm -- 29.66 in1004.4 mb - 0.00 in0.0 mm 0.00 in0.0 mm
06:50 AM 34.3°F1.3°C 33.6°F0.9°C 97% Calm Calm -- 29.67 in1004.7 mb - 0.00 in0.0 mm 0.00 in0.0 mm
07:00 AM 34.5°F1.4°C 33.5°F0.8°C 96% Calm Calm -- 29.68 in1005.1 mb - 0.00 in0.0 mm 0.00 in0.0 mm
07:10 AM 35.0°F1.7°C 34.2°F1.2°C 97% 1.2 mph WNW1.9 kmh WNW 1.2 mph1.9 kmh 29.68 in1005.1 mb - 0.00 in0.0 mm 0.00 in0.0 mm
07:20 AM 35.6°F2.0°C 34.8°F1.6°C 97% Calm Calm -- 29.69 in1005.4 mb - 0.00 in0.0 mm 0.00 in0.0 mm
07:30 AM 36.1°F2.3°C 35.3°F1.8°C 97% Calm Calm -- 29.69 in1005.4 mb - 0.00 in0.0 mm 0.00 in0.0 mm
07:40 AM 36.2°F2.3°C 35.4°F1.9°C 97% Calm Calm -- 29.70 in1005.8 mb - 0.00 in0.0 mm 0.00 in0.0 mm
07:50 AM 36.4°F2.4°C 35.6°F2.0°C 97% Calm Calm -- 29.70 in1005.8 mb - 0.00 in0.0 mm 0.00 in0.0 mm
08:00 AM 36.9°F2.7°C 36.1°F2.3°C 97% Calm Calm -- 29.70 in1005.8 mb - 0.00 in0.0 mm 0.00 in0.0 mm
08:10 AM 37.4°F3.0°C 36.6°F2.6°C 97% 1.2 mph NW1.9 kmh NW 3.5 mph5.6 kmh 29.71 in1006.1 mb - 0.00 in0.0 mm 0.00 in0.0 mm
08:20 AM 37.9°F3.3°C 37.1°F2.8°C 97% Calm Calm 2.3 mph3.7 kmh 29.72 in1006.4 mb - 0.00 in0.0 mm 0.00 in0.0 mm
08:30 AM 38.5°F3.6°C 37.7°F3.2°C 97% 2.3 mph NW3.7 kmh NW 3.5 mph5.6 kmh 29.73 in1006.8 mb - 0.00 in0.0 mm 0.00 in0.0 mm
08:40 AM 39.5°F4.2°C 38.7°F3.7°C 97% 2.3 mph NW3.7 kmh NW 4.6 mph7.4 kmh 29.73 in1006.8 mb - 0.00 in0.0 mm 0.00 in0.0 mm
08:50 AM 40.1°F4.5°C 39.3°F4.1°C 97% 2.3 mph NW3.7 kmh NW 3.5 mph5.6 kmh 29.73 in1006.8 mb - 0.00 in0.0 mm 0.00 in0.0 mm
09:00 AM 40.5°F4.7°C 39.7°F4.3°C 97% Calm Calm -- 29.74 in1007.1 mb - 0.00 in0.0 mm 0.00 in0.0 mm
09:10 AM 40.7°F4.8°C 39.9°F4.4°C 97% Calm Calm -- 29.75 in1007.5 mb - 0.00 in0.0 mm 0.00 in0.0 mm
09:20 AM 41.1°F5.1°C 40.3°F4.6°C 97% Calm Calm 2.3 mph3.7 kmh 29.75 in1007.5 mb - 0.00 in0.0 mm 0.00 in0.0 mm
09:30 AM 41.5°F5.3°C 40.7°F4.8°C 97% Calm Calm 1.2 mph1.9 kmh 29.76 in1007.8 mb - 0.00 in0.0 mm 0.00 in0.0 mm
09:40 AM 42.0°F5.6°C 41.2°F5.1°C 97% Calm Calm -- 29.77 in1008.1 mb - 0.00 in0.0 mm 0.00 in0.0 mm
09:50 AM 42.3°F5.7°C 41.5°F5.3°C 97% Calm Calm 5.8 mph9.3 kmh 29.77 in1008.1 mb - 0.00 in0.0 mm 0.00 in0.0 mm
10:00 AM 42.7°F5.9°C 41.9°F5.5°C 97% Calm Calm -- 29.77 in1008.1 mb - 0.00 in0.0 mm 0.00 in0.0 mm
10:10 AM 43.2°F6.2°C 42.4°F5.8°C 97% 2.3 mph NW3.7 kmh NW 5.8 mph9.3 kmh 29.77 in1008.1 mb - 0.00 in0.0 mm 0.00 in0.0 mm
10:20 AM 43.8°F6.6°C 43.0°F6.1°C 97% 3.5 mph N5.6 kmh N 9.2 mph14.8 kmh 29.78 in1008.5 mb - 0.00 in0.0 mm 0.00 in0.0 mm
10:30 AM 44.6°F7.0°C 43.8°F6.6°C 97% Calm Calm 5.8 mph9.3 kmh 29.78 in1008.5 mb - 0.00 in0.0 mm 0.00 in0.0 mm
10:40 AM 45.2°F7.3°C 44.4°F6.9°C 97% 3.5 mph N5.6 kmh N 6.9 mph11.1 kmh 29.78 in1008.5 mb - 0.00 in0.0 mm 0.00 in0.0 mm
10:50 AM 45.0°F7.2°C 43.9°F6.6°C 96% 2.3 mph N3.7 kmh N 8.1 mph13.0 kmh 29.79 in1008.8 mb - 0.00 in0.0 mm 0.00 in0.0 mm
11:00 AM 44.8°F7.1°C 43.5°F6.4°C 95% Calm Calm 3.5 mph5.6 kmh 29.79 in1008.8 mb - 0.00 in0.0 mm 0.00 in0.0 mm
11:10 AM 44.8°F7.1°C 42.9°F6.1°C 93% Calm Calm -- 29.80 in1009.1 mb - 0.00 in0.0 mm 0.00 in0.0 mm
11:20 AM 45.1°F7.3°C 42.9°F6.1°C 92% 1.2 mph NNW1.9 kmh NNW -- 29.80 in1009.1 mb - 0.00 in0.0 mm 0.00 in0.0 mm
11:30 AM 46.0°F7.8°C 43.8°F6.6°C 92% 1.2 mph NW1.9 kmh NW -- 29.80 in1009.1 mb - 0.00 in0.0 mm 0.00 in0.0 mm
11:40 AM 46.3°F7.9°C 43.2°F6.2°C 89% 2.3 mph N3.7 kmh N 6.9 mph11.1 kmh 29.80 in1009.1 mb - 0.00 in0.0 mm 0.00 in0.0 mm
11:50 AM 46.4°F8.0°C 42.7°F5.9°C 87% 4.6 mph NNW7.4 kmh NNW 11.5 mph18.5 kmh 29.80 in1009.1 mb - 0.00 in0.0 mm 0.00 in0.0 mm
12:00 PM 46.3°F7.9°C 42.0°F5.6°C 85% 2.3 mph NNW3.7 kmh NNW 8.1 mph13.0 kmh 29.80 in1009.1 mb - 0.00 in0.0 mm 0.00 in0.0 mm
12:10 PM 46.9°F8.3°C 42.6°F5.9°C 85% 2.3 mph N3.7 kmh N 5.8 mph9.3 kmh 29.80 in1009.1 mb - 0.00 in0.0 mm 0.00 in0.0 mm
12:20 PM 47.7°F8.7°C 42.8°F6.0°C 83% 2.3 mph N3.7 kmh N 6.9 mph11.1 kmh 29.80 in1009.1 mb - 0.00 in0.0 mm 0.00 in0.0 mm
12:30 PM 48.3°F9.1°C 42.7°F5.9°C 81% 2.3 mph NNW3.7 kmh NNW 4.6 mph7.4 kmh 29.81 in1009.5 mb - 0.00 in0.0 mm 0.00 in0.0 mm
12:40 PM 48.2°F9.0°C 42.3°F5.7°C 80% 2.3 mph N3.7 kmh N 8.1 mph13.0 kmh 29.81 in1009.5 mb - 0.00 in0.0 mm 0.00 in0.0 mm
12:50 PM 48.3°F9.1°C 42.7°F5.9°C 81% 2.3 mph N3.7 kmh N 9.2 mph14.8 kmh 29.82 in1009.8 mb - 0.00 in0.0 mm 0.00 in0.0 mm
01:00 PM 48.7°F9.3°C 42.8°F6.0°C 80% Calm Calm 4.6 mph7.4 kmh 29.82 in1009.8 mb - 0.00 in0.0 mm 0.00 in0.0 mm
01:10 PM 48.7°F9.3°C 42.4°F5.8°C 79% 4.6 mph NW7.4 kmh NW 9.2 mph14.8 kmh 29.82 in1009.8 mb - 0.00 in0.0 mm 0.00 in0.0 mm
01:20 PM 48.3°F9.1°C 42.4°F5.8°C 80% 3.5 mph N5.6 kmh N 6.9 mph11.1 kmh 29.82 in1009.8 mb - 0.00 in0.0 mm 0.00 in0.0 mm
01:30 PM 48.2°F9.0°C 42.3°F5.7°C 80% Calm Calm -- 29.82 in1009.8 mb - 0.00 in0.0 mm 0.00 in0.0 mm
01:40 PM 48.0°F8.9°C 41.8°F5.4°C 79% 1.2 mph NNW1.9 kmh NNW 5.8 mph9.3 kmh 29.82 in1009.8 mb - 0.00 in0.0 mm 0.00 in0.0 mm
01:50 PM 47.8°F8.8°C 42.0°F5.6°C 80% 5.8 mph NW9.3 kmh NW 8.1 mph13.0 kmh 29.82 in1009.8 mb - 0.00 in0.0 mm 0.00 in0.0 mm
02:00 PM 47.9°F8.8°C 42.0°F5.6°C 80% 1.2 mph N1.9 kmh N 9.2 mph14.8 kmh 29.82 in1009.8 mb - 0.00 in0.0 mm 0.00 in0.0 mm
02:10 PM 47.8°F8.8°C 41.6°F5.3°C 79% 5.8 mph NW9.3 kmh NW 10.4 mph16.7 kmh 29.82 in1009.8 mb - 0.00 in0.0 mm 0.00 in0.0 mm
02:20 PM 47.9°F8.8°C 41.7°F5.4°C 79% 3.5 mph N5.6 kmh N 6.9 mph11.1 kmh 29.83 in1010.2 mb - 0.00 in0.0 mm 0.00 in0.0 mm
02:30 PM 48.1°F8.9°C 41.9°F5.5°C 79% Calm Calm 5.8 mph9.3 kmh 29.83 in1010.2 mb - 0.00 in0.0 mm 0.00 in0.0 mm
02:40 PM 47.9°F8.8°C 41.4°F5.2°C 78% 1.2 mph N1.9 kmh N 2.3 mph3.7 kmh 29.84 in1010.5 mb - 0.00 in0.0 mm 0.00 in0.0 mm
02:50 PM 47.6°F8.7°C 41.0°F5.0°C 78% 4.6 mph NW7.4 kmh NW 5.8 mph9.3 kmh 29.83 in1010.2 mb - 0.00 in0.0 mm 0.00 in0.0 mm
03:00 PM 47.2°F8.4°C 40.7°F4.8°C 78% Calm Calm -- 29.85 in1010.8 mb - 0.00 in0.0 mm 0.00 in0.0 mm
03:10 PM 46.9°F8.3°C 40.7°F4.8°C 79% Calm Calm -- 29.85 in1010.8 mb - 0.00 in0.0 mm 0.00 in0.0 mm
03:20 PM 46.7°F8.2°C 40.9°F4.9°C 80% 1.2 mph NW1.9 kmh NW -- 29.85 in1010.8 mb - 0.00 in0.0 mm 0.00 in0.0 mm
03:30 PM 46.7°F8.2°C 40.9°F4.9°C 80% 2.3 mph N3.7 kmh N 3.5 mph5.6 kmh 29.85 in1010.8 mb - 0.00 in0.0 mm 0.00 in0.0 mm
03:40 PM 46.5°F8.1°C 40.7°F4.8°C 80% Calm Calm 2.3 mph3.7 kmh 29.85 in1010.8 mb - 0.00 in0.0 mm 0.00 in0.0 mm
03:50 PM 46.3°F7.9°C 40.5°F4.7°C 80% 1.2 mph N1.9 kmh N 3.5 mph5.6 kmh 29.86 in1011.2 mb - 0.00 in0.0 mm 0.00 in0.0 mm
04:00 PM 46.0°F7.8°C 40.5°F4.7°C 81% Calm Calm -- 29.86 in1011.2 mb - 0.00 in0.0 mm 0.00 in0.0 mm
04:10 PM 45.7°F7.6°C 40.2°F4.6°C 81% 1.2 mph N1.9 kmh N 3.5 mph5.6 kmh 29.86 in1011.2 mb - 0.00 in0.0 mm 0.00 in0.0 mm
04:20 PM 45.3°F7.4°C 39.8°F4.3°C 81% Calm Calm 1.2 mph1.9 kmh 29.87 in1011.5 mb - 0.00 in0.0 mm 0.00 in0.0 mm
04:30 PM 45.0°F7.2°C 39.8°F4.3°C 82% Calm Calm -- 29.88 in1011.9 mb - 0.00 in0.0 mm 0.00 in0.0 mm
04:40 PM 44.5°F6.9°C 39.7°F4.3°C 83% Calm Calm -- 29.88 in1011.9 mb - 0.00 in0.0 mm 0.00 in0.0 mm
04:50 PM 44.1°F6.7°C 39.3°F4.1°C 83% Calm Calm -- 29.88 in1011.9 mb - 0.00 in0.0 mm 0.00 in0.0 mm
05:00 PM 43.6°F6.4°C 38.8°F3.8°C 83% Calm Calm 1.2 mph1.9 kmh 29.89 in1012.2 mb - 0.00 in0.0 mm 0.00 in0.0 mm
05:10 PM 43.2°F6.2°C 38.7°F3.7°C 84% Calm Calm 1.2 mph1.9 kmh 29.89 in1012.2 mb - 0.00 in0.0 mm 0.00 in0.0 mm
05:20 PM 42.8°F6.0°C 38.3°F3.5°C 84% Calm Calm -- 29.89 in1012.2 mb - 0.00 in0.0 mm 0.00 in0.0 mm
05:30 PM 42.4°F5.8°C 37.9°F3.3°C 84% Calm Calm -- 29.90 in1012.5 mb - 0.00 in0.0 mm 0.00 in0.0 mm
05:40 PM 42.0°F5.6°C 37.5°F3.1°C 84% Calm Calm -- 29.90 in1012.5 mb - 0.00 in0.0 mm 0.00 in0.0 mm
05:50 PM 41.5°F5.3°C 37.3°F2.9°C 85% Calm Calm -- 29.90 in1012.5 mb - 0.00 in0.0 mm 0.00 in0.0 mm
06:00 PM 41.3°F5.2°C 37.4°F3.0°C 86% Calm Calm -- 29.90 in1012.5 mb - 0.00 in0.0 mm 0.00 in0.0 mm
06:10 PM 41.1°F5.1°C 37.2°F2.9°C 86% Calm Calm -- 29.91 in1012.9 mb - 0.00 in0.0 mm 0.00 in0.0 mm
06:20 PM 40.8°F4.9°C 36.9°F2.7°C 86% Calm Calm -- 29.91 in1012.9 mb - 0.00 in0.0 mm 0.00 in0.0 mm
06:30 PM 40.5°F4.7°C 36.9°F2.7°C 87% Calm Calm 1.2 mph1.9 kmh 29.91 in1012.9 mb - 0.00 in0.0 mm 0.00 in0.0 mm
06:40 PM 40.4°F4.7°C 36.8°F2.7°C 87% Calm Calm -- 29.91 in1012.9 mb - 0.00 in0.0 mm 0.00 in0.0 mm
06:50 PM 40.1°F4.5°C 36.5°F2.5°C 87% Calm Calm -- 29.91 in1012.9 mb - 0.00 in0.0 mm 0.00 in0.0 mm
07:00 PM 39.9°F4.4°C 36.6°F2.6°C 88% Calm Calm -- 29.91 in1012.9 mb - 0.00 in0.0 mm 0.00 in0.0 mm
07:10 PM 39.6°F4.2°C 36.3°F2.4°C 88% Calm Calm 1.2 mph1.9 kmh 29.91 in1012.9 mb - 0.00 in0.0 mm 0.00 in0.0 mm
07:20 PM 39.5°F4.2°C 36.2°F2.3°C 88% Calm Calm -- 29.91 in1012.9 mb - 0.00 in0.0 mm 0.00 in0.0 mm
07:30 PM 39.3°F4.1°C 36.0°F2.2°C 88% Calm Calm -- 29.91 in1012.9 mb - 0.00 in0.0 mm 0.00 in0.0 mm
07:40 PM 39.1°F3.9°C 35.8°F2.1°C 88% Calm Calm -- 29.91 in1012.9 mb - 0.00 in0.0 mm 0.00 in0.0 mm
07:50 PM 38.7°F3.7°C 35.5°F1.9°C 88% Calm Calm -- 29.92 in1013.2 mb - 0.00 in0.0 mm 0.00 in0.0 mm
08:20 PM 38.6°F3.7°C 35.1°F1.7°C 87% Calm Calm 1.2 mph1.9 kmh 29.92 in1013.2 mb - 0.00 in0.0 mm 0.00 in0.0 mm
08:30 PM 38.5°F3.6°C 34.7°F1.5°C 86% 1.2 mph NNW1.9 kmh NNW 3.5 mph5.6 kmh 29.92 in1013.2 mb - 0.00 in0.0 mm 0.00 in0.0 mm
08:40 PM 38.4°F3.6°C 34.3°F1.3°C 85% Calm Calm -- 29.92 in1013.2 mb - 0.00 in0.0 mm 0.00 in0.0 mm
08:50 PM 38.3°F3.5°C 33.9°F1.1°C 84% 1.2 mph NNW1.9 kmh NNW 1.2 mph1.9 kmh 29.92 in1013.2 mb - 0.00 in0.0 mm 0.00 in0.0 mm
09:00 PM 38.1°F3.4°C 33.4°F0.8°C 83% Calm Calm -- 29.93 in1013.5 mb - 0.00 in0.0 mm 0.00 in0.0 mm
09:10 PM 37.7°F3.2°C 33.0°F0.6°C 83% Calm Calm -- 29.93 in1013.5 mb - 0.00 in0.0 mm 0.00 in0.0 mm
09:20 PM 37.2°F2.9°C 32.5°F0.3°C 83% Calm Calm -- 29.93 in1013.5 mb - 0.00 in0.0 mm 0.00 in0.0 mm
09:30 PM 36.7°F2.6°C 32.3°F0.2°C 84% Calm Calm -- 29.93 in1013.5 mb - 0.00 in0.0 mm 0.00 in0.0 mm
09:40 PM 36.4°F2.4°C 32.3°F0.2°C 85% Calm Calm -- 29.93 in1013.5 mb - 0.00 in0.0 mm 0.00 in0.0 mm
09:50 PM 35.9°F2.2°C 31.8°F-0.1°C 85% Calm Calm -- 29.93 in1013.5 mb - 0.00 in0.0 mm 0.00 in0.0 mm
10:00 PM 35.4°F1.9°C 31.6°F-0.2°C 86% Calm Calm -- 29.93 in1013.5 mb - 0.00 in0.0 mm 0.00 in0.0 mm
10:10 PM 35.2°F1.8°C 32.0°F0.0°C 88% Calm Calm -- 29.93 in1013.5 mb - 0.00 in0.0 mm 0.00 in0.0 mm
10:20 PM 35.1°F1.7°C 31.9°F-0.1°C 88% Calm Calm -- 29.93 in1013.5 mb - 0.00 in0.0 mm 0.00 in0.0 mm
10:30 PM 34.8°F1.6°C 31.6°F-0.2°C 88% Calm Calm -- 29.92 in1013.2 mb - 0.00 in0.0 mm 0.00 in0.0 mm
10:40 PM 34.6°F1.4°C 31.7°F-0.2°C 89% Calm Calm -- 29.92 in1013.2 mb - 0.00 in0.0 mm 0.00 in0.0 mm
10:50 PM 34.7°F1.5°C 31.8°F-0.1°C 89% Calm Calm -- 29.92 in1013.2 mb - 0.00 in0.0 mm 0.00 in0.0 mm
11:00 PM 34.8°F1.6°C 32.2°F0.1°C 90% 2.3 mph SW3.7 kmh SW 2.3 mph3.7 kmh 29.92 in1013.2 mb - 0.00 in0.0 mm 0.00 in0.0 mm
11:10 PM 34.8°F1.6°C 32.1°F0.1°C 90% Calm Calm -- 29.93 in1013.5 mb - 0.00 in0.0 mm 0.00 in0.0 mm
11:20 PM 34.6°F1.4°C 32.0°F0.0°C 90% Calm Calm -- 29.93 in1013.5 mb - 0.00 in0.0 mm 0.00 in0.0 mm
11:30 PM 34.4°F1.3°C 31.7°F-0.2°C 90% Calm Calm -- 29.93 in1013.5 mb - 0.00 in0.0 mm 0.00 in0.0 mm
11:40 PM 34.3°F1.3°C 31.7°F-0.2°C 90% Calm Calm -- 29.93 in1013.5 mb - 0.00 in0.0 mm 0.00 in0.0 mm
11:50 PM 34.2°F1.2°C 31.6°F-0.2°C 90% Calm Calm -- 29.93 in1013.5 mb - 0.00 in0.0 mm 0.00 in0.0 mm